Time;durP1;ratioP1;P1;durP2;ratioP2;P2;SDS_P1;SDS_P2;PMS_P1;PMS_P2;Temp;Humidity;BMP_temperature;BMP_pressure;BME280_temperature;BME280_humidity;BME280_pressure;Samples;Min_cycle;Max_cycle;Signal;HPM_P1;HPM_P2
2021/05/01 00:01:20;;;;;;;;;;;7.90;95.80;;;;;;5031833;28;19947;-74
2021/05/01 00:03:48;;;;;;;;;;;7.90;95.70;;;;;;5048130;28;20004;-74
2021/05/01 00:06:14;;;;;;;;;;;7.90;96.10;;;;;;5048714;28;19959;-74
2021/05/01 00:08:39;;;;;;;;;;;7.80;97.50;;;;;;5030599;28;20011;-73
2021/05/01 00:11:07;;;;;;;;;;;7.80;98.80;;;;;;5029070;28;19975;-74
2021/05/01 00:13:33;;;;;;;;;;;7.80;97.40;;;;;;5048134;28;19932;-74
2021/05/01 00:15:59;;;;;;;;;;;7.70;99.50;;;;;;5047967;28;19924;-74
2021/05/01 00:18:29;;;;;;;;;;;7.70;99.70;;;;;;5031526;28;20425;-74
2021/05/01 00:20:54;;;;;;;;;;;7.70;99.10;;;;;;5048476;28;19916;-73
2021/05/01 00:23:20;;;;;;;;;;;7.70;98.80;;;;;;5014873;28;20389;-74
2021/05/01 00:25:48;;;;;;;;;;;7.70;98.30;;;;;;5047763;28;20362;-73
2021/05/01 00:28:16;;;;;;;;;;;7.70;99.90;;;;;;5032032;28;19924;-73
2021/05/01 00:30:44;;;;;;;;;;;7.60;99.90;;;;;;5031209;28;20007;-73
2021/05/01 00:33:12;;;;;;;;;;;7.50;99.90;;;;;;5047690;28;19995;-74
2021/05/01 00:35:40;;;;;;;;;;;7.50;99.90;;;;;;5030185;28;20281;-74
2021/05/01 00:38:08;;;;;;;;;;;7.50;99.90;;;;;;5030692;28;20357;-74
2021/05/01 00:40:33;;;;;;;;;;;7.40;99.90;;;;;;5049091;28;19925;-74
2021/05/01 00:43:01;;;;;;;;;;;7.40;99.90;;;;;;5020139;28;19925;-73
2021/05/01 00:45:27;;;;;;;;;;;7.40;99.90;;;;;;5048311;28;19920;-74
2021/05/01 00:47:52;;;;;;;;;;;7.40;99.90;;;;;;5030639;28;19927;-74
2021/05/01 00:50:18;;;;;;;;;;;7.40;99.90;;;;;;5028272;28;20342;-74
2021/05/01 00:52:48;;;;;;;;;;;7.40;99.90;;;;;;5048079;28;19916;-73
2021/05/01 00:55:13;;;;;;;;;;;7.40;99.90;;;;;;5030652;28;19946;-74
2021/05/01 00:57:41;;;;;;;;;;;7.30;99.90;;;;;;5029191;28;19920;-74
2021/05/01 01:00:23;;;;;;;;;;;7.30;99.90;;;;;;5048141;28;20499;-74
2021/05/01 01:02:49;;;;;;;;;;;7.30;99.90;;;;;;5048017;28;20007;-74
2021/05/01 01:05:15;;;;;;;;;;;7.30;99.90;;;;;;5045940;28;19921;-74
2021/05/01 01:07:42;;;;;;;;;;;7.20;99.90;;;;;;5029986;28;19928;-74
2021/05/01 01:10:10;;;;;;;;;;;7.20;99.90;;;;;;5028210;28;20273;-74
2021/05/01 01:12:36;;;;;;;;;;;7.20;99.90;;;;;;5030322;28;19921;-74
2021/05/01 01:15:02;;;;;;;;;;;7.20;99.90;;;;;;5030274;28;19924;-74
2021/05/01 01:17:30;;;;;;;;;;;7.10;99.90;;;;;;5048792;28;19924;-74
2021/05/01 01:19:57;;;;;;;;;;;7.10;99.90;;;;;;5046558;28;19920;-74
2021/05/01 01:22:23;;;;;;;;;;;7.10;99.90;;;;;;5046924;28;19916;-74
2021/05/01 01:24:48;;;;;;;;;;;7.10;99.90;;;;;;5048282;28;20258;-74
2021/05/01 01:27:14;;;;;;;;;;;7.10;99.90;;;;;;5048663;28;19923;-74
2021/05/01 01:29:40;;;;;;;;;;;7.00;99.90;;;;;;5046876;28;19944;-74
2021/05/01 01:32:09;;;;;;;;;;;7.00;99.90;;;;;;5046616;28;19920;-73
2021/05/01 01:34:34;;;;;;;;;;;7.00;99.90;;;;;;5047549;28;19924;-73
2021/05/01 01:37:02;;;;;;;;;;;6.90;99.90;;;;;;5047226;28;19934;-74
2021/05/01 01:39:30;;;;;;;;;;;6.90;99.90;;;;;;5029074;28;19955;-74
2021/05/01 01:41:58;;;;;;;;;;;6.90;99.90;;;;;;5047918;28;20398;-74
2021/05/01 01:44:23;;;;;;;;;;;6.80;99.90;;;;;;5030536;28;19971;-74
2021/05/01 01:46:51;;;;;;;;;;;6.80;99.90;;;;;;5047032;28;19928;-74
2021/05/01 01:49:21;;;;;;;;;;;6.70;99.90;;;;;;5030874;28;19920;-73
2021/05/01 01:51:47;;;;;;;;;;;6.60;99.90;;;;;;5029281;28;19943;-74
2021/05/01 01:54:15;;;;;;;;;;;6.60;99.90;;;;;;5047391;28;19921;-74
2021/05/01 01:56:42;;;;;;;;;;;6.60;99.90;;;;;;5028313;28;20001;-74
2021/05/01 01:59:08;;;;;;;;;;;6.50;99.90;;;;;;5030127;28;19962;-74
2021/05/01 02:01:36;;;;;;;;;;;6.50;99.90;;;;;;5048967;28;19984;-74
2021/05/01 02:04:01;;;;;;;;;;;6.40;99.90;;;;;;5052053;28;19920;-74
2021/05/01 02:06:29;;;;;;;;;;;6.40;99.90;;;;;;5051724;28;19917;-74
2021/05/01 02:08:55;;;;;;;;;;;6.40;99.90;;;;;;5034500;28;19929;-74
2021/05/01 02:11:20;;;;;;;;;;;6.40;99.90;;;;;;5050081;28;19928;-74
2021/05/01 02:13:46;;;;;;;;;;;6.30;99.90;;;;;;5050378;28;19931;-73
2021/05/01 02:16:11;;;;;;;;;;;6.20;99.90;;;;;;5050860;28;19931;-74
2021/05/01 02:18:37;;;;;;;;;;;6.10;99.90;;;;;;5050154;28;19921;-74
2021/05/01 02:21:03;;;;;;;;;;;6.10;99.90;;;;;;5030931;28;19916;-73
2021/05/01 02:23:28;;;;;;;;;;;6.10;99.90;;;;;;5051734;28;19921;-74
2021/05/01 02:25:54;;;;;;;;;;;6.10;99.90;;;;;;5031916;28;19944;-74
2021/05/01 02:28:22;;;;;;;;;;;6.10;99.90;;;;;;5050832;28;19920;-74
2021/05/01 02:30:50;;;;;;;;;;;6.10;99.90;;;;;;5031973;28;20437;-73
2021/05/01 02:33:15;;;;;;;;;;;6.10;99.90;;;;;;5032509;28;20345;-73
2021/05/01 02:35:43;;;;;;;;;;;6.10;99.90;;;;;;5050129;28;19928;-73
2021/05/01 02:38:09;;;;;;;;;;;6.00;99.90;;;;;;5033040;28;19917;-74
2021/05/01 02:40:35;;;;;;;;;;;6.00;99.90;;;;;;5033893;28;20346;-73
2021/05/01 02:43:07;;;;;;;;;;;5.90;99.90;;;;;;5015903;28;20245;-73
2021/05/01 02:45:35;;;;;;;;;;;5.90;99.90;;;;;;5022615;28;19928;-73
2021/05/01 02:48:01;;;;;;;;;;;5.90;99.90;;;;;;5033084;28;19917;-73
2021/05/01 02:50:27;;;;;;;;;;;5.80;99.90;;;;;;5049787;28;19927;-75
2021/05/01 02:52:55;;;;;;;;;;;5.80;99.90;;;;;;5050195;28;19982;-73
2021/05/01 02:55:20;;;;;;;;;;;5.70;99.90;;;;;;5050207;28;19921;-73
2021/05/01 02:57:48;;;;;;;;;;;5.70;99.90;;;;;;5049764;28;19926;-73
2021/05/01 03:00:14;;;;;;;;;;;5.60;99.90;;;;;;5049918;28;19998;-73
2021/05/01 03:02:41;;;;;;;;;;;5.60;99.90;;;;;;5049667;28;20031;-73
2021/05/01 03:05:10;;;;;;;;;;;5.50;99.90;;;;;;5032166;28;19923;-73
2021/05/01 03:07:35;;;;;;;;;;;5.50;99.90;;;;;;5050012;28;19999;-73
2021/05/01 03:10:05;;;;;;;;;;;5.50;99.90;;;;;;5032492;28;19942;-73
2021/05/01 03:12:30;;;;;;;;;;;5.40;99.90;;;;;;5049565;28;19917;-73
2021/05/01 03:14:58;;;;;;;;;;;5.30;99.90;;;;;;5048947;28;19931;-73
2021/05/01 03:17:24;;;;;;;;;;;5.40;99.90;;;;;;5050604;28;20373;-73
2021/05/01 03:19:49;;;;;;;;;;;5.40;99.90;;;;;;5029960;28;19920;-73
2021/05/01 03:22:15;;;;;;;;;;;5.30;99.90;;;;;;5032935;28;19966;-73
2021/05/01 03:24:43;;;;;;;;;;;5.20;99.90;;;;;;5051175;28;19912;-73
2021/05/01 03:27:08;;;;;;;;;;;5.20;99.90;;;;;;5048905;28;19921;-73
2021/05/01 03:29:34;;;;;;;;;;;5.20;99.90;;;;;;5050315;28;20304;-74
2021/05/01 03:32:02;;;;;;;;;;;5.20;99.90;;;;;;5050626;28;19928;-73
2021/05/01 03:34:27;;;;;;;;;;;5.20;99.90;;;;;;5049959;28;19921;-73
2021/05/01 03:36:53;;;;;;;;;;;5.20;99.90;;;;;;5049518;28;21762;-73
2021/05/01 03:39:18;;;;;;;;;;;5.20;99.90;;;;;;5049364;28;19917;-73
2021/05/01 03:41:44;;;;;;;;;;;5.20;99.90;;;;;;5031219;28;20055;-73
2021/05/01 03:44:15;;;;;;;;;;;5.20;99.90;;;;;;5047912;28;20020;-73
2021/05/01 03:46:40;;;;;;;;;;;5.30;99.90;;;;;;5050475;28;19967;-73
2021/05/01 03:49:08;;;;;;;;;;;5.30;99.90;;;;;;5049546;28;20869;-73
2021/05/01 03:51:36;;;;;;;;;;;5.30;99.90;;;;;;5049581;28;19920;-73
2021/05/01 03:54:01;;;;;;;;;;;5.30;99.90;;;;;;5049384;28;19917;-73
2021/05/01 03:56:32;;;;;;;;;;;5.30;99.90;;;;;;5049839;28;19940;-73
2021/05/01 03:58:59;;;;;;;;;;;5.30;99.90;;;;;;5031467;28;19921;-73
2021/05/01 04:01:25;;;;;;;;;;;5.30;99.90;;;;;;5032600;28;20353;-73
2021/05/01 04:03:51;;;;;;;;;;;5.30;99.90;;;;;;5031849;28;19931;-73
2021/05/01 04:06:16;;;;;;;;;;;5.30;99.90;;;;;;5048820;28;19916;-73
2021/05/01 04:08:42;;;;;;;;;;;5.20;99.90;;;;;;5047150;28;19936;-73
2021/05/01 04:11:09;;;;;;;;;;;5.30;99.90;;;;;;5030544;28;19923;-73
2021/05/01 04:13:35;;;;;;;;;;;5.20;99.90;;;;;;5048419;28;19912;-73
2021/05/01 04:16:02;;;;;;;;;;;5.20;99.90;;;;;;5047926;28;19936;-73
2021/05/01 04:18:28;;;;;;;;;;;5.20;99.90;;;;;;5047622;28;19925;-73
2021/05/01 04:20:56;;;;;;;;;;;5.20;99.90;;;;;;5048951;28;19952;-73
2021/05/01 04:23:24;;;;;;;;;;;5.10;99.90;;;;;;5047970;28;21827;-73
2021/05/01 04:25:49;;;;;;;;;;;5.20;99.90;;;;;;5048300;28;20420;-73
2021/05/01 04:28:15;;;;;;;;;;;5.10;99.90;;;;;;5048813;28;20220;-73
2021/05/01 04:30:40;;;;;;;;;;;5.10;99.90;;;;;;5047702;28;19920;-73
2021/05/01 04:33:08;;;;;;;;;;;5.10;99.90;;;;;;5029651;28;21819;-73
2021/05/01 04:35:34;;;;;;;;;;;5.00;99.90;;;;;;5048056;28;19927;-73
2021/05/01 04:37:59;;;;;;;;;;;5.00;99.90;;;;;;5047607;28;20282;-73
2021/05/01 04:40:27;;;;;;;;;;;5.00;99.90;;;;;;5049026;28;20026;-73
2021/05/01 04:42:59;;;;;;;;;;;4.90;99.90;;;;;;5047299;28;19921;-73
2021/05/01 04:45:25;;;;;;;;;;;4.90;99.90;;;;;;5049104;28;20393;-73
2021/05/01 04:47:51;;;;;;;;;;;4.90;99.90;;;;;;5001492;28;19916;-73
2021/05/01 04:50:17;;;;;;;;;;;4.90;99.90;;;;;;5047261;28;20278;-73
2021/05/01 04:52:42;;;;;;;;;;;4.90;99.90;;;;;;5029340;28;19927;-73
2021/05/01 04:55:14;;;;;;;;;;;4.90;99.90;;;;;;5048099;28;20081;-73
2021/05/01 04:57:40;;;;;;;;;;;4.90;99.90;;;;;;5029579;28;19956;-73
2021/05/01 05:00:08;;;;;;;;;;;4.90;99.90;;;;;;5049450;28;19920;-73
2021/05/01 05:02:36;;;;;;;;;;;5.00;99.90;;;;;;5012137;28;19927;-73
2021/05/01 05:05:05;;;;;;;;;;;5.00;99.90;;;;;;5048784;28;19931;-73
2021/05/01 05:07:30;;;;;;;;;;;5.00;99.90;;;;;;5046881;28;20015;-74
2021/05/01 05:09:58;;;;;;;;;;;5.00;99.90;;;;;;5047741;28;20240;-73
2021/05/01 05:12:24;;;;;;;;;;;5.00;99.90;;;;;;5030248;28;20381;-73
2021/05/01 05:14:49;;;;;;;;;;;5.00;99.90;;;;;;5047724;28;19921;-73
2021/05/01 05:17:17;;;;;;;;;;;5.10;99.90;;;;;;5047293;28;20269;-73
2021/05/01 05:19:42;;;;;;;;;;;5.10;99.90;;;;;;5047524;28;19924;-73
2021/05/01 05:22:08;;;;;;;;;;;5.10;99.90;;;;;;5048066;28;20369;-74
2021/05/01 05:24:35;;;;;;;;;;;5.20;99.90;;;;;;5047837;28;19972;-73
2021/05/01 05:27:00;;;;;;;;;;;5.20;99.90;;;;;;5047321;28;19960;-73
2021/05/01 05:29:28;;;;;;;;;;;5.20;99.90;;;;;;5029513;28;20546;-73
2021/05/01 05:31:54;;;;;;;;;;;5.20;99.90;;;;;;5047692;28;19920;-73
2021/05/01 05:34:22;;;;;;;;;;;5.30;99.90;;;;;;5029500;28;20332;-73
2021/05/01 05:36:47;;;;;;;;;;;5.30;99.90;;;;;;5047013;28;19925;-73
2021/05/01 05:39:14;;;;;;;;;;;5.40;99.90;;;;;;5046550;28;19931;-73
2021/05/01 05:41:39;;;;;;;;;;;5.40;99.90;;;;;;5029121;28;19947;-73
2021/05/01 05:44:05;;;;;;;;;;;5.40;99.90;;;;;;5048030;28;19924;-73
2021/05/01 05:46:30;;;;;;;;;;;5.50;99.90;;;;;;5047929;28;19921;-73
2021/05/01 05:48:58;;;;;;;;;;;5.50;99.90;;;;;;5045548;28;19916;-73
2021/05/01 05:51:28;;;;;;;;;;;5.50;99.90;;;;;;5045664;28;19916;-73
2021/05/01 05:53:54;;;;;;;;;;;5.60;99.90;;;;;;5029447;28;19916;-73
2021/05/01 05:56:19;;;;;;;;;;;5.70;99.90;;;;;;5028683;28;19948;-73
2021/05/01 05:58:47;;;;;;;;;;;5.80;99.90;;;;;;5030141;28;20050;-73
2021/05/01 06:01:13;;;;;;;;;;;5.90;99.90;;;;;;5048006;28;19921;-73
2021/05/01 06:03:39;;;;;;;;;;;6.10;99.90;;;;;;5030259;28;20338;-73
2021/05/01 06:06:07;;;;;;;;;;;6.20;99.90;;;;;;5013848;28;19921;-73
2021/05/01 06:08:33;;;;;;;;;;;6.30;99.90;;;;;;5029997;28;20522;-73
2021/05/01 06:11:01;;;;;;;;;;;6.50;99.90;;;;;;5014072;28;19923;-72
2021/05/01 06:13:31;;;;;;;;;;;6.60;99.90;;;;;;5018436;28;19917;-73
2021/05/01 06:15:57;;;;;;;;;;;6.70;99.90;;;;;;5046227;28;19924;-73
2021/05/01 06:18:25;;;;;;;;;;;6.90;99.90;;;;;;5047481;28;19932;-73
2021/05/01 06:20:50;;;;;;;;;;;7.00;99.90;;;;;;5028122;28;19917;-72
2021/05/01 06:23:21;;;;;;;;;;;7.20;99.90;;;;;;5028820;28;20078;-73
2021/05/01 06:25:47;;;;;;;;;;;7.30;99.90;;;;;;5047442;28;19997;-73
2021/05/01 06:28:15;;;;;;;;;;;7.50;99.90;;;;;;5026909;28;20503;-73
2021/05/01 06:30:42;;;;;;;;;;;7.60;99.90;;;;;;5047065;28;19927;-73
2021/05/01 06:33:11;;;;;;;;;;;7.70;99.90;;;;;;5046664;28;19952;-73
2021/05/01 06:35:37;;;;;;;;;;;7.80;99.90;;;;;;5045547;28;20547;-73
2021/05/01 06:38:05;;;;;;;;;;;7.90;99.90;;;;;;5046583;28;19966;-73
2021/05/01 06:40:33;;;;;;;;;;;8.00;99.90;;;;;;5047607;28;19944;-73
2021/05/01 06:43:04;;;;;;;;;;;8.10;99.90;;;;;;5047491;28;19954;-73
2021/05/01 06:45:35;;;;;;;;;;;8.20;99.90;;;;;;5027875;28;20355;-73
2021/05/01 06:48:02;;;;;;;;;;;8.30;99.90;;;;;;5045886;28;19943;-73
2021/05/01 06:50:27;;;;;;;;;;;8.50;99.90;;;;;;5033038;28;20007;-73
2021/05/01 06:52:56;;;;;;;;;;;8.60;99.90;;;;;;5050490;28;19927;-72
2021/05/01 06:55:24;;;;;;;;;;;8.50;99.90;;;;;;5049760;28;20003;-73
2021/05/01 06:57:53;;;;;;;;;;;8.70;99.90;;;;;;5032321;28;19936;-73
2021/05/01 07:00:19;;;;;;;;;;;8.70;99.90;;;;;;5032532;28;19916;-73
2021/05/01 07:02:45;;;;;;;;;;;8.80;99.90;;;;;;5029689;28;19920;-73
2021/05/01 07:05:21;;;;;;;;;;;8.90;99.90;;;;;;5048491;28;19921;-73
2021/05/01 07:07:48;;;;;;;;;;;8.90;99.90;;;;;;5045965;28;19929;-72
2021/05/01 07:10:17;;;;;;;;;;;9.00;99.90;;;;;;5014779;28;20039;-72
2021/05/01 07:12:42;;;;;;;;;;;9.10;99.90;;;;;;5048638;28;19976;-73
2021/05/01 07:15:11;;;;;;;;;;;9.20;99.90;;;;;;5049115;28;19921;-73
2021/05/01 07:17:37;;;;;;;;;;;9.20;99.90;;;;;;5048185;28;19939;-73
2021/05/01 07:20:03;;;;;;;;;;;9.20;99.90;;;;;;5049044;28;19921;-73
2021/05/01 07:22:30;;;;;;;;;;;9.30;99.90;;;;;;5049014;28;19924;-73
2021/05/01 07:24:59;;;;;;;;;;;9.40;99.90;;;;;;5048202;28;20004;-72
2021/05/01 07:27:36;;;;;;;;;;;9.50;99.90;;;;;;5049065;28;19928;-72
2021/05/01 07:30:04;;;;;;;;;;;9.50;99.20;;;;;;5048277;28;19916;-72
2021/05/01 07:32:33;;;;;;;;;;;9.70;99.90;;;;;;5049446;28;20062;-73
2021/05/01 07:35:01;;;;;;;;;;;9.80;99.90;;;;;;5029263;28;19973;-73
2021/05/01 07:37:29;;;;;;;;;;;9.90;99.90;;;;;;5030709;28;19947;-73
2021/05/01 07:39:55;;;;;;;;;;;10.00;99.90;;;;;;5028834;28;20016;-72
2021/05/01 07:42:21;;;;;;;;;;;10.20;99.90;;;;;;5029778;28;20062;-73
2021/05/01 07:44:47;;;;;;;;;;;10.30;99.90;;;;;;5030257;28;19924;-73
2021/05/01 07:47:13;;;;;;;;;;;10.50;99.00;;;;;;5030122;28;19920;-73
2021/05/01 07:49:40;;;;;;;;;;;10.60;99.90;;;;;;5030696;28;19921;-73
2021/05/01 07:52:08;;;;;;;;;;;10.80;99.90;;;;;;5048593;28;19921;-73
2021/05/01 07:54:41;;;;;;;;;;;10.90;99.90;;;;;;5031746;28;20386;-73
2021/05/01 07:57:07;;;;;;;;;;;11.00;95.90;;;;;;5047431;28;19921;-70
2021/05/01 07:59:33;;;;;;;;;;;11.10;96.80;;;;;;5047651;28;19925;-71
2021/05/01 08:01:58;;;;;;;;;;;11.20;97.40;;;;;;5048550;28;20243;-73
2021/05/01 08:04:24;;;;;;;;;;;11.20;98.20;;;;;;5046400;28;19931;-71
2021/05/01 08:06:49;;;;;;;;;;;11.30;95.40;;;;;;5048087;28;19964;-71
2021/05/01 08:09:15;;;;;;;;;;;11.50;99.90;;;;;;5028324;28;20016;-72
2021/05/01 08:11:40;;;;;;;;;;;11.60;91.20;;;;;;5029095;28;19916;-72
2021/05/01 08:14:06;;;;;;;;;;;11.70;96.10;;;;;;5045480;28;20059;-72
2021/05/01 08:16:31;;;;;;;;;;;11.80;95.00;;;;;;5029673;28;20334;-72
2021/05/01 08:19:00;;;;;;;;;;;11.80;92.50;;;;;;5047875;28;19921;-71
2021/05/01 08:21:28;;;;;;;;;;;12.00;93.10;;;;;;5029834;28;19985;-71
2021/05/01 08:23:53;;;;;;;;;;;12.10;94.40;;;;;;5047184;28;19920;-72
2021/05/01 08:26:19;;;;;;;;;;;12.20;91.50;;;;;;5048015;28;19993;-71
2021/05/01 08:28:44;;;;;;;;;;;11.90;82.90;;;;;;5029547;28;19943;-72
2021/05/01 08:31:10;;;;;;;;;;;12.20;92.30;;;;;;5047769;28;19921;-71
2021/05/01 08:33:35;;;;;;;;;;;12.20;92.80;;;;;;5047325;28;19931;-71
2021/05/01 08:36:03;;;;;;;;;;;12.30;90.50;;;;;;5048014;28;19925;-72
2021/05/01 08:38:32;;;;;;;;;;;12.50;91.60;;;;;;5028005;28;19978;-72
2021/05/01 08:41:03;;;;;;;;;;;12.50;91.90;;;;;;5046934;28;19913;-72
2021/05/01 08:43:31;;;;;;;;;;;12.60;90.00;;;;;;5029741;28;19940;-72
2021/05/01 08:45:58;;;;;;;;;;;12.60;90.80;;;;;;5029830;28;19920;-71
2021/05/01 08:48:25;;;;;;;;;;;12.70;85.00;;;;;;5015756;28;20020;-71
2021/05/01 08:50:54;;;;;;;;;;;12.70;80.10;;;;;;5046489;28;20159;-72
2021/05/01 08:53:21;;;;;;;;;;;12.60;83.30;;;;;;5047058;28;20006;-71
2021/05/01 08:55:49;;;;;;;;;;;12.70;86.10;;;;;;5046600;28;19920;-72
2021/05/01 08:58:15;;;;;;;;;;;12.80;85.80;;;;;;5027693;28;19928;-72
2021/05/01 09:00:41;;;;;;;;;;;13.00;90.30;;;;;;5028226;28;19916;-72
2021/05/01 09:03:10;;;;;;;;;;;13.00;76.70;;;;;;5047278;28;20046;-72
2021/05/01 09:05:36;;;;;;;;;;;13.10;79.00;;;;;;5028184;28;20346;-73
2021/05/01 09:08:03;;;;;;;;;;;13.20;80.10;;;;;;5027926;28;19955;-73
2021/05/01 09:10:35;;;;;;;;;;;13.40;79.80;;;;;;5030387;28;20039;-73
2021/05/01 09:13:03;;;;;;;;;;;13.50;78.00;;;;;;5013114;28;19921;-75
2021/05/01 09:15:31;;;;;;;;;;;13.60;81.60;;;;;;5028507;28;19920;-75
2021/05/01 09:18:06;;;;;;;;;;;13.50;77.00;;;;;;5046747;28;20731;-76
2021/05/01 09:20:31;;;;;;;;;;;13.70;77.30;;;;;;5047185;28;20515;-74
2021/05/01 09:23:01;;;;;;;;;;;13.60;76.60;;;;;;5029646;28;19921;-75
2021/05/01 09:25:29;;;;;;;;;;;13.60;77.40;;;;;;5046914;28;19921;-75
2021/05/01 09:28:00;;;;;;;;;;;13.60;73.70;;;;;;5027484;28;19917;-74
2021/05/01 09:30:31;;;;;;;;;;;13.40;74.50;;;;;;5047512;28;19917;-74
2021/05/01 09:33:15;;;;;;;;;;;13.30;75.10;;;;;;5029757;28;20007;-78
2021/05/01 09:35:41;;;;;;;;;;;13.30;75.50;;;;;;5047664;28;19921;-73
2021/05/01 09:38:09;;;;;;;;;;;12.90;71.50;;;;;;5028934;28;19920;-72
2021/05/01 09:40:34;;;;;;;;;;;13.10;81.20;;;;;;5046669;28;20391;-74
2021/05/01 09:43:09;;;;;;;;;;;13.10;79.50;;;;;;5046376;28;19917;-73
2021/05/01 09:45:38;;;;;;;;;;;12.80;77.10;;;;;;5042593;28;19921;-73
2021/05/01 09:48:13;;;;;;;;;;;13.00;78.90;;;;;;5043602;28;20342;-73
2021/05/01 09:50:39;;;;;;;;;;;13.00;83.20;;;;;;5045169;28;20366;-72
2021/05/01 09:53:08;;;;;;;;;;;13.00;76.90;;;;;;5045432;28;19921;-72
2021/05/01 09:55:40;;;;;;;;;;;13.00;79.60;;;;;;5045997;28;19927;-72
2021/05/01 09:58:18;;;;;;;;;;;13.00;81.70;;;;;;5044645;28;19994;-72
2021/05/01 10:00:44;;;;;;;;;;;13.00;81.80;;;;;;5011439;28;20362;-72
2021/05/01 10:03:23;;;;;;;;;;;12.80;80.10;;;;;;5027848;28;20012;-72
2021/05/01 10:05:49;;;;;;;;;;;12.70;79.20;;;;;;5044801;28;20366;-72
2021/05/01 10:08:14;;;;;;;;;;;12.50;77.90;;;;;;5009032;28;20149;-72
2021/05/01 10:10:40;;;;;;;;;;;12.50;82.20;;;;;;5026914;28;19920;-72
2021/05/01 10:13:06;;;;;;;;;;;12.50;80.50;;;;;;5044226;28;19931;-72
2021/05/01 10:15:31;;;;;;;;;;;12.60;84.50;;;;;;5027801;28;19916;-72
2021/05/01 10:18:20;;;;;;;;;;;12.50;80.90;;;;;;5027164;28;20119;-73
2021/05/01 10:20:47;;;;;;;;;;;12.50;82.70;;;;;;5045203;28;19996;-72
2021/05/01 10:23:13;;;;;;;;;;;12.40;79.30;;;;;;5047553;28;20027;-72
2021/05/01 10:25:39;;;;;;;;;;;12.40;81.50;;;;;;5030463;28;20366;-72
2021/05/01 10:28:07;;;;;;;;;;;12.40;80.30;;;;;;5029638;28;19917;-72
2021/05/01 10:30:41;;;;;;;;;;;12.40;80.70;;;;;;5031651;28;19931;-72
2021/05/01 10:35:47;;;;;;;;;;;12.30;81.60;;;;;;5049183;28;19923;-72
2021/05/01 10:38:13;;;;;;;;;;;12.30;83.70;;;;;;5048406;28;19916;-73
2021/05/01 10:40:40;;;;;;;;;;;12.30;83.20;;;;;;5034683;28;19921;-73
2021/05/01 10:43:10;;;;;;;;;;;12.20;82.90;;;;;;5047355;28;19928;-73
2021/05/01 10:45:35;;;;;;;;;;;12.30;85.50;;;;;;5049750;28;19927;-73
2021/05/01 10:48:07;;;;;;;;;;;12.20;82.20;;;;;;5049016;28;19917;-73
2021/05/01 10:50:35;;;;;;;;;;;12.20;80.60;;;;;;5048454;28;19917;-74
2021/05/01 10:53:04;;;;;;;;;;;12.10;82.80;;;;;;5048009;28;19925;-74
2021/05/01 10:55:49;;;;;;;;;;;12.10;84.00;;;;;;5049323;28;19916;-73
2021/05/01 10:58:30;;;;;;;;;;;12.00;81.00;;;;;;5031097;28;20324;-73
2021/05/01 11:00:57;;;;;;;;;;;11.90;81.80;;;;;;5050294;28;19942;-73
2021/05/01 11:03:23;;;;;;;;;;;11.90;81.80;;;;;;5021455;28;20254;-73
2021/05/01 11:05:49;;;;;;;;;;;11.80;80.70;;;;;;5047366;28;19921;-73
2021/05/01 11:08:18;;;;;;;;;;;11.80;81.40;;;;;;5013450;28;19961;-72
2021/05/01 11:10:45;;;;;;;;;;;11.90;84.50;;;;;;5009584;28;19941;-73
2021/05/01 11:13:11;;;;;;;;;;;11.80;82.50;;;;;;5008645;28;19917;-73
2021/05/01 11:15:41;;;;;;;;;;;11.80;82.70;;;;;;5024517;28;19922;-73
2021/05/01 11:18:07;;;;;;;;;;;11.80;84.20;;;;;;5007960;28;19929;-73
2021/05/01 11:20:33;;;;;;;;;;;11.80;85.50;;;;;;5007563;28;20374;-73
2021/05/01 11:22:59;;;;;;;;;;;11.70;82.30;;;;;;5008878;28;19928;-73
2021/05/01 11:25:27;;;;;;;;;;;11.70;83.50;;;;;;5008360;28;19971;-73
2021/05/01 11:27:53;;;;;;;;;;;11.70;83.80;;;;;;5006418;28;19922;-73
2021/05/01 11:30:19;;;;;;;;;;;11.70;86.50;;;;;;5008694;28;19921;-74
2021/05/01 11:32:47;;;;;;;;;;;11.80;84.80;;;;;;5007393;28;19972;-73
2021/05/01 11:35:17;;;;;;;;;;;11.70;83.90;;;;;;5006634;28;19933;-74
2021/05/01 11:37:43;;;;;;;;;;;11.70;82.30;;;;;;5006894;28;19921;-74
2021/05/01 11:40:10;;;;;;;;;;;11.70;84.50;;;;;;5007214;28;20228;-74
2021/05/01 11:42:38;;;;;;;;;;;11.80;86.30;;;;;;5022877;28;20237;-73
2021/05/01 11:45:06;;;;;;;;;;;11.70;83.90;;;;;;5007760;28;19921;-73
2021/05/01 11:47:31;;;;;;;;;;;11.70;85.60;;;;;;5005292;28;19921;-73
2021/05/01 11:49:57;;;;;;;;;;;11.80;83.00;;;;;;5007079;28;19929;-73
2021/05/01 11:52:28;;;;;;;;;;;11.80;83.60;;;;;;5008968;28;19937;-73
2021/05/01 11:54:59;;;;;;;;;;;11.80;81.80;;;;;;5008071;28;20008;-72
2021/05/01 11:57:31;;;;;;;;;;;11.80;84.80;;;;;;5011957;28;19921;-73
2021/05/01 11:59:59;;;;;;;;;;;11.90;87.60;;;;;;5008397;28;20236;-73
2021/05/01 12:02:43;;;;;;;;;;;11.90;86.50;;;;;;5024055;28;19921;-71
2021/05/01 12:05:17;;;;;;;;;;;11.90;86.80;;;;;;4989126;28;19925;-72
2021/05/01 12:07:48;;;;;;;;;;;12.00;90.70;;;;;;5004366;28;19921;-72
2021/05/01 12:10:16;;;;;;;;;;;12.10;89.30;;;;;;5021730;28;19929;-72
2021/05/01 12:12:47;;;;;;;;;;;12.10;83.90;;;;;;5006813;28;19928;-72
2021/05/01 12:15:13;;;;;;;;;;;12.30;89.00;;;;;;5006649;28;19925;-72
2021/05/01 12:17:41;;;;;;;;;;;12.30;82.90;;;;;;5006318;28;19939;-73
2021/05/01 12:20:09;;;;;;;;;;;12.40;82.60;;;;;;5007089;28;19921;-73
2021/05/01 12:22:34;;;;;;;;;;;12.40;80.70;;;;;;5021753;28;19941;-73
2021/05/01 12:25:00;;;;;;;;;;;12.50;82.30;;;;;;4314451;28;10000842;-74
2021/05/01 12:27:45;;;;;;;;;;;12.60;81.50;;;;;;5005666;28;20007;-73
2021/05/01 12:30:30;;;;;;;;;;;12.80;83.20;;;;;;5006006;28;19960;-72
2021/05/01 12:32:56;;;;;;;;;;;12.90;77.60;;;;;;5004501;28;19933;-72
2021/05/01 12:35:21;;;;;;;;;;;12.90;75.50;;;;;;4989007;28;19918;-73
2021/05/01 12:37:47;;;;;;;;;;;13.10;83.10;;;;;;5005496;28;20527;-73
2021/05/01 12:40:12;;;;;;;;;;;13.00;78.40;;;;;;5004867;28;20024;-73
2021/05/01 12:42:40;;;;;;;;;;;13.10;75.80;;;;;;5007351;28;19928;-72
2021/05/01 12:45:32;;;;;;;;;;;13.20;77.50;;;;;;5005190;28;19925;-73
2021/05/01 12:48:02;;;;;;;;;;;13.30;73.60;;;;;;5005809;28;20004;-74
2021/05/01 12:50:30;;;;;;;;;;;13.30;75.10;;;;;;5006097;28;19921;-75
2021/05/01 12:53:14;;;;;;;;;;;13.40;72.70;;;;;;5010309;28;19932;-73
2021/05/01 12:55:59;;;;;;;;;;;13.50;72.00;;;;;;4658341;28;9999901;-74
2021/05/01 12:58:25;;;;;;;;;;;13.60;70.80;;;;;;5006587;28;20551;-74
2021/05/01 13:00:53;;;;;;;;;;;13.60;69.30;;;;;;5007376;28;19956;-74
2021/05/01 13:03:19;;;;;;;;;;;13.60;69.90;;;;;;5005102;28;19971;-73
2021/05/01 13:05:45;;;;;;;;;;;13.60;72.00;;;;;;5004440;28;19965;-74
2021/05/01 13:08:21;;;;;;;;;;;13.60;72.80;;;;;;5028863;28;20481;-73
2021/05/01 13:10:46;;;;;;;;;;;13.60;71.10;;;;;;5045379;28;20441;-73
2021/05/01 13:13:12;;;;;;;;;;;13.60;71.40;;;;;;5027843;28;19967;-73
2021/05/01 13:15:56;;;;;;;;;;;13.70;71.00;;;;;;5045002;28;19922;-73
2021/05/01 13:18:22;;;;;;;;;;;13.60;69.40;;;;;;5031553;28;20019;-73
2021/05/01 13:21:02;;;;;;;;;;;13.70;69.60;;;;;;5027844;28;19920;-74
2021/05/01 13:23:39;;;;;;;;;;;13.70;67.30;;;;;;5048264;28;20262;-74
2021/05/01 13:26:05;;;;;;;;;;;13.60;68.30;;;;;;5045551;28;20342;-74
2021/05/01 13:28:32;;;;;;;;;;;13.70;69.70;;;;;;5045624;28;19952;-75
2021/05/01 13:30:57;;;;;;;;;;;13.60;68.10;;;;;;5045713;28;20587;-75
2021/05/01 13:33:23;;;;;;;;;;;13.70;70.30;;;;;;5044115;28;19971;-75
2021/05/01 13:35:49;;;;;;;;;;;13.80;73.50;;;;;;5025626;28;19921;-74
2021/05/01 13:38:14;;;;;;;;;;;13.70;72.00;;;;;;5026599;28;19924;-76
2021/05/01 13:40:42;;;;;;;;;;;13.80;72.00;;;;;;5045807;28;19920;-75
2021/05/01 13:43:08;;;;;;;;;;;13.70;70.70;;;;;;5014009;28;19931;-76
2021/05/01 13:45:45;;;;;;;;;;;13.60;69.60;;;;;;5027684;28;19928;-76
2021/05/01 13:48:17;;;;;;;;;;;13.60;69.40;;;;;;5026827;28;19917;-76
2021/05/01 13:50:44;;;;;;;;;;;13.60;72.80;;;;;;5045267;28;19931;-75
2021/05/01 13:53:09;;;;;;;;;;;13.70;71.70;;;;;;5018455;28;20358;-76
2021/05/01 13:55:35;;;;;;;;;;;13.60;67.60;;;;;;5044690;28;19926;-75
2021/05/01 13:58:04;;;;;;;;;;;13.70;67.70;;;;;;5028809;28;19932;-75
2021/05/01 14:00:32;;;;;;;;;;;13.60;65.60;;;;;;5030399;28;19989;-76
2021/05/01 14:02:58;;;;;;;;;;;13.60;68.70;;;;;;5014948;28;19927;-76
2021/05/01 14:05:27;;;;;;;;;;;13.60;69.00;;;;;;5048740;28;19927;-76
2021/05/01 14:07:53;;;;;;;;;;;13.70;69.30;;;;;;5014463;28;20074;-76
2021/05/01 14:10:20;;;;;;;;;;;13.70;67.60;;;;;;5046275;28;19921;-76
2021/05/01 14:12:48;;;;;;;;;;;13.70;69.90;;;;;;5050351;28;19932;-76
2021/05/01 14:15:23;;;;;;;;;;;13.80;69.60;;;;;;5032067;28;19927;-76
2021/05/01 14:17:51;;;;;;;;;;;13.90;71.70;;;;;;5022641;28;19925;-75
2021/05/01 14:20:17;;;;;;;;;;;13.90;70.50;;;;;;5012786;28;19920;-75
2021/05/01 14:22:51;;;;;;;;;;;13.80;66.00;;;;;;5049251;28;19978;-76
2021/05/01 14:25:17;;;;;;;;;;;13.80;66.20;;;;;;5032381;28;19921;-76
2021/05/01 14:27:49;;;;;;;;;;;13.80;67.60;;;;;;5030911;28;20357;-74
2021/05/01 14:30:17;;;;;;;;;;;13.80;66.50;;;;;;5048349;28;19921;-76